createdAt,value
2023-05-20T08:05:12.380Z,22.83
2023-05-20T08:06:12.291Z,22.75
2023-05-20T08:08:05.121Z,22.85
2023-05-20T08:09:43.360Z,22.76
2023-05-20T08:10:43.245Z,22.76
2023-05-20T08:11:52.810Z,22.70
2023-05-20T08:12:52.761Z,22.70
2023-05-20T08:14:47.079Z,22.75
2023-05-20T08:18:46.186Z,22.84
2023-05-20T08:19:46.084Z,22.76
2023-05-20T08:23:40.667Z,22.81
2023-05-20T08:24:40.220Z,22.91
2023-05-20T08:26:32.035Z,22.94
2023-05-20T08:29:33.522Z,22.94
2023-05-20T08:30:47.801Z,22.96
2023-05-20T08:33:25.253Z,23.03
2023-05-20T08:35:36.521Z,23.20
2023-05-20T08:36:36.346Z,23.23
2023-05-20T08:38:10.903Z,23.18
2023-05-20T08:39:41.536Z,23.21
2023-05-20T08:40:41.403Z,23.28
2023-05-20T08:41:41.349Z,23.31
2023-05-20T08:42:41.272Z,23.24
2023-05-20T08:43:41.215Z,23.37
2023-05-20T08:44:41.150Z,23.34
2023-05-20T08:45:41.104Z,23.32
2023-05-20T08:46:48.157Z,23.34
2023-05-20T08:47:48.022Z,23.37
2023-05-20T08:49:39.839Z,23.47
2023-05-20T08:50:39.767Z,23.44
2023-05-20T08:52:31.591Z,23.46
2023-05-20T08:53:31.513Z,23.39
2023-05-20T08:55:19.059Z,23.37
2023-05-20T08:56:18.994Z,23.37
2023-05-20T08:58:12.486Z,23.21
2023-05-20T08:59:12.402Z,23.20
2023-05-20T09:01:02.327Z,23.21
2023-05-20T09:02:01.681Z,23.20
2023-05-20T09:03:58.356Z,23.23
2023-05-20T09:04:58.312Z,23.24
2023-05-20T09:11:22.521Z,23.23
2023-05-20T09:12:42.720Z,23.21
2023-05-20T09:13:26.709Z,23.25
2023-05-20T09:14:26.637Z,23.20
2023-05-20T09:16:23.657Z,23.24
2023-05-20T09:17:23.565Z,23.21
2023-05-20T09:21:08.163Z,23.13
2023-05-20T09:21:52.165Z,23.09
2023-05-20T09:22:36.198Z,23.05
2023-05-20T09:23:20.215Z,23.23
2023-05-20T09:24:04.212Z,23.12
2023-05-20T09:26:20.275Z,23.12
2023-05-20T09:27:04.277Z,23.21
2023-05-20T09:33:50.074Z,23.21
2023-05-20T09:34:49.955Z,23.28
2023-05-20T09:47:02.857Z,23.58
2023-05-20T09:48:02.809Z,24.17
2023-05-20T09:49:59.502Z,24.11
2023-05-20T09:53:52.282Z,24.20
2023-05-20T09:56:50.408Z,24.11
2023-05-20T09:57:50.340Z,23.93
2023-05-20T10:03:30.379Z,23.83
2023-05-20T10:04:30.175Z,23.86
2023-05-20T10:06:26.892Z,23.92
2023-05-20T10:07:40.748Z,23.98
2023-05-20T10:09:23.744Z,23.92
2023-05-20T10:10:23.612Z,23.95
2023-05-20T10:11:23.550Z,23.98
2023-05-20T10:12:23.485Z,23.93
2023-05-20T10:13:23.435Z,23.95
2023-05-20T10:14:23.379Z,23.95
2023-05-20T10:15:23.296Z,23.96
2023-05-20T10:16:23.353Z,23.96
2023-05-20T10:18:59.628Z,23.91
2023-05-20T10:19:59.527Z,23.95
2023-05-20T10:20:59.458Z,23.96
2023-05-20T10:22:27.086Z,23.98
2023-05-20T10:25:09.117Z,23.91
2023-05-20T10:29:25.988Z,23.98
2023-05-20T10:30:25.899Z,23.99
2023-05-20T10:31:25.872Z,24.02
2023-05-20T10:32:25.837Z,23.93
2023-05-20T10:33:25.754Z,23.93
2023-05-20T10:34:25.655Z,24.05
2023-05-20T10:35:25.601Z,24.08
2023-05-20T10:36:25.530Z,24.08
2023-05-20T10:37:25.492Z,24.11
2023-05-20T10:38:25.405Z,24.08
2023-05-20T10:39:25.334Z,24.03
2023-05-20T10:40:25.282Z,23.99
2023-05-20T10:41:25.214Z,24.03
2023-05-20T10:42:25.158Z,24.13
2023-05-20T10:43:25.111Z,24.05
2023-05-20T10:44:25.035Z,24.10
2023-05-20T10:45:24.991Z,24.06
2023-05-20T10:46:34.875Z,24.11
2023-05-20T10:47:26.304Z,24.21
2023-05-20T10:48:24.957Z,24.21
2023-05-20T10:49:27.671Z,24.20
2023-05-20T10:50:24.676Z,24.20
2023-05-20T10:51:24.611Z,24.36
2023-05-20T10:52:24.552Z,24.38
2023-05-20T10:53:33.573Z,24.45
2023-05-20T10:54:24.405Z,24.54
2023-05-20T10:55:24.343Z,24.63
2023-05-20T10:56:24.283Z,24.51
2023-05-20T10:57:24.237Z,24.61
2023-05-20T10:58:24.212Z,24.51
2023-05-20T10:59:24.110Z,24.54
2023-05-20T11:00:24.053Z,24.54
2023-05-20T11:01:23.999Z,24.43
2023-05-20T11:02:23.912Z,24.33
2023-05-20T11:03:23.923Z,24.21
2023-05-20T11:04:23.817Z,24.10
2023-05-20T11:05:23.740Z,24.16
2023-05-20T11:06:23.707Z,24.13
2023-05-20T11:07:23.601Z,24.18
2023-05-20T11:08:28.990Z,24.13
2023-05-20T11:09:23.502Z,24.20
2023-05-20T11:10:23.446Z,24.10
2023-05-20T11:11:23.372Z,24.08
2023-05-20T11:12:23.299Z,24.06
2023-05-20T11:13:23.287Z,24.13
2023-05-20T11:14:23.167Z,24.06
2023-05-20T11:15:23.146Z,24.14
2023-05-20T11:16:23.089Z,24.26
2023-05-20T11:17:22.991Z,24.33
2023-05-20T11:18:23.068Z,24.38
2023-05-20T11:19:22.934Z,24.32
2023-05-20T11:20:22.822Z,24.35
2023-05-20T11:21:22.742Z,24.50
2023-05-20T11:22:22.720Z,24.50
2023-05-20T11:23:22.674Z,24.50
2023-05-20T11:24:22.560Z,24.58
2023-05-20T11:25:22.506Z,24.65
2023-05-20T11:26:22.494Z,24.73
2023-05-20T11:27:22.408Z,24.78
2023-05-20T11:28:22.313Z,24.66
2023-05-20T11:29:22.256Z,24.55
2023-05-20T11:30:22.207Z,24.47
2023-05-20T11:31:22.122Z,24.42
2023-05-20T11:32:22.142Z,24.35
2023-05-20T11:33:22.095Z,24.47
2023-05-20T11:34:24.149Z,23.98
2023-05-20T11:35:21.924Z,23.73
2023-05-20T11:37:09.949Z,23.02
2023-05-20T11:38:09.647Z,22.85
2023-05-20T11:40:06.894Z,22.38
2023-05-20T11:41:06.851Z,22.33
2023-05-20T11:42:06.753Z,22.47
2023-05-20T11:43:06.686Z,22.96
2023-05-20T11:44:06.627Z,23.05
2023-05-20T11:46:06.522Z,22.88
2023-05-20T11:47:06.440Z,22.83
2023-05-20T11:48:06.397Z,22.72
2023-05-20T11:49:06.313Z,22.87
2023-05-20T11:50:06.249Z,22.78
2023-05-20T11:51:06.184Z,22.41
2023-05-20T11:52:06.133Z,22.33
2023-05-20T11:53:06.062Z,22.08
2023-05-20T11:54:06.113Z,22.26
2023-05-20T11:55:05.960Z,22.57
2023-05-20T11:56:05.878Z,22.65
2023-05-20T11:57:07.230Z,22.88
2023-05-20T11:58:05.756Z,22.91
2023-05-20T11:59:05.691Z,22.94
2023-05-20T12:00:05.637Z,22.96
2023-05-20T12:01:21.084Z,23.00
2023-05-20T12:02:05.501Z,23.23
2023-05-20T12:03:05.639Z,23.36
2023-05-20T12:04:05.605Z,23.44
2023-05-20T12:05:05.389Z,23.46
2023-05-20T12:06:05.255Z,23.56
2023-05-20T12:07:05.218Z,23.41
2023-05-20T12:08:05.155Z,23.44
2023-05-20T12:09:05.088Z,23.46
2023-05-20T12:10:05.038Z,23.47
2023-05-20T12:11:04.961Z,23.46
2023-05-20T12:12:04.900Z,23.50
2023-05-20T12:13:04.839Z,23.62
2023-05-20T12:14:04.774Z,23.68
2023-05-20T12:15:04.719Z,23.78
2023-05-20T12:16:04.698Z,23.83
2023-05-20T12:17:04.618Z,23.80
2023-05-20T12:18:04.537Z,23.73
2023-05-20T12:19:04.584Z,23.73
2023-05-20T12:20:04.427Z,23.74
2023-05-20T12:21:04.377Z,23.65
2023-05-20T12:22:04.299Z,23.78
2023-05-20T12:23:04.234Z,23.80
2023-05-20T12:24:04.170Z,23.88
2023-05-20T12:25:04.142Z,23.93
2023-05-20T12:26:04.073Z,23.78
2023-05-20T12:27:03.995Z,23.96
2023-05-20T12:28:03.919Z,23.88
2023-05-20T12:29:03.885Z,24.01
2023-05-20T12:30:03.797Z,23.95
2023-05-20T12:31:03.771Z,23.81
2023-05-20T12:32:03.727Z,23.83
2023-05-20T12:33:03.659Z,23.78
2023-05-20T12:34:03.618Z,23.86
2023-05-20T12:35:03.506Z,23.76
2023-05-20T12:36:03.422Z,23.66
2023-05-20T12:37:03.398Z,23.63
2023-05-20T12:38:03.342Z,23.63
2023-05-20T12:39:03.258Z,23.74
2023-05-20T12:40:03.193Z,23.77
2023-05-20T12:41:03.126Z,23.77
2023-05-20T12:42:03.080Z,23.69
2023-05-20T12:43:03.010Z,23.69
2023-05-20T12:44:02.937Z,23.73
2023-05-20T12:45:02.909Z,23.69
2023-05-20T12:46:02.823Z,23.62
2023-05-20T12:47:02.833Z,23.65
2023-05-20T12:48:02.803Z,23.69
2023-05-20T12:49:02.644Z,23.61
2023-05-20T12:50:02.598Z,23.59
2023-05-20T12:51:02.544Z,23.61
2023-05-20T12:52:05.740Z,23.71
2023-05-20T12:53:02.405Z,23.65
2023-05-20T12:54:02.357Z,23.74
2023-05-20T12:55:02.331Z,23.63
2023-05-20T12:56:02.209Z,23.68
2023-05-20T12:57:02.168Z,23.71
2023-05-20T12:58:02.089Z,23.78
2023-05-20T12:59:02.095Z,23.78
2023-05-20T13:00:02.073Z,23.84
2023-05-20T13:01:01.981Z,24.02
2023-05-20T13:02:01.892Z,23.96
2023-05-20T13:03:01.881Z,23.99
2023-05-20T13:04:01.730Z,24.14
2023-05-20T13:05:01.659Z,24.18
2023-05-20T13:06:01.602Z,24.05
2023-05-20T13:07:01.548Z,24.08
2023-05-20T13:08:01.570Z,23.99
2023-05-20T13:09:01.433Z,23.98
2023-05-20T13:10:01.390Z,23.84
2023-05-20T13:11:01.323Z,23.81
2023-05-20T13:12:01.227Z,23.87
2023-05-20T13:13:01.174Z,23.87
2023-05-20T13:14:01.116Z,23.96
2023-05-20T13:15:01.115Z,23.98
2023-05-20T13:16:01.003Z,24.03
2023-05-20T13:17:01.037Z,23.91
2023-05-20T13:18:00.936Z,23.99
2023-05-20T13:19:00.905Z,23.99
2023-05-20T13:20:00.810Z,24.01
2023-05-20T13:21:00.739Z,23.92
2023-05-20T13:22:00.652Z,23.93
2023-05-20T13:23:00.572Z,24.02
2023-05-20T13:24:00.531Z,24.01
2023-05-20T13:25:00.502Z,23.98
2023-05-20T13:26:00.448Z,24.03
2023-05-20T13:27:00.338Z,24.10
2023-05-20T13:28:00.290Z,23.98
2023-05-20T13:29:00.216Z,23.91
2023-05-20T13:30:00.274Z,23.93
2023-05-20T13:31:00.168Z,23.99
2023-05-20T13:32:01.974Z,24.06
2023-05-20T13:33:00.097Z,24.02
2023-05-20T13:33:59.904Z,24.06
2023-05-20T13:34:59.844Z,23.96
2023-05-20T13:35:59.785Z,23.93
2023-05-20T13:36:59.732Z,23.95
2023-05-20T13:37:59.663Z,23.91
2023-05-20T13:38:59.622Z,23.92
2023-05-20T13:39:59.559Z,23.65
2023-05-20T13:40:59.529Z,23.65
2023-05-20T13:41:59.413Z,23.68
2023-05-20T13:42:59.358Z,23.62
2023-05-20T13:43:59.308Z,23.65
2023-05-20T13:44:59.248Z,23.69
2023-05-20T13:45:59.227Z,23.66
2023-05-20T13:46:59.137Z,23.48
2023-05-20T13:47:59.120Z,23.43
2023-05-20T13:48:58.996Z,23.24
2023-05-20T13:50:00.111Z,23.21
2023-05-20T13:50:58.869Z,23.18
2023-05-20T13:51:58.814Z,23.21
2023-05-20T13:52:58.759Z,23.23
2023-05-20T13:53:58.698Z,23.05
2023-05-20T13:54:58.640Z,23.12
2023-05-20T13:55:58.590Z,23.31
2023-05-20T13:56:58.538Z,23.43
2023-05-20T13:57:58.464Z,23.43
2023-05-20T13:58:58.401Z,23.41
2023-05-20T13:59:58.332Z,23.55
2023-05-20T14:00:58.259Z,23.50
2023-05-20T14:01:58.340Z,23.56
2023-05-20T14:02:58.225Z,23.46
2023-05-20T14:03:58.183Z,23.47
2023-05-20T14:04:58.024Z,23.43
2023-05-20T14:05:58.000Z,23.24
2023-05-20T14:06:57.925Z,23.21
2023-05-20T14:07:57.827Z,23.36
2023-05-20T14:08:57.776Z,23.41
2023-05-20T14:09:57.708Z,23.39
2023-05-20T14:10:57.664Z,23.48
2023-05-20T14:11:57.594Z,23.41
2023-05-20T14:12:57.558Z,23.46
2023-05-20T14:13:57.468Z,23.50
2023-05-20T14:14:57.437Z,23.58
2023-05-20T14:15:57.400Z,23.61
2023-05-20T14:16:57.277Z,23.59
2023-05-20T14:17:57.244Z,23.56
2023-05-20T14:18:57.184Z,23.63
2023-05-20T14:19:57.105Z,23.69
2023-05-20T14:20:57.054Z,23.73
2023-05-20T14:21:56.990Z,23.68
2023-05-20T14:22:56.923Z,23.69
2023-05-20T14:23:56.861Z,23.69
2023-05-20T14:24:56.798Z,23.68
2023-05-20T14:25:56.743Z,23.56
2023-05-20T14:26:56.692Z,23.59
2023-05-20T14:27:56.619Z,23.51
2023-05-20T14:28:56.579Z,23.41
2023-05-20T14:29:56.495Z,23.41
2023-05-20T14:30:56.438Z,23.37
2023-05-20T14:31:56.410Z,23.47
2023-05-20T14:32:56.425Z,23.47
2023-05-20T14:33:56.368Z,23.39
2023-05-20T14:34:56.187Z,23.32
2023-05-20T14:35:56.150Z,23.34
2023-05-20T14:36:56.077Z,23.36
2023-05-20T14:37:56.009Z,23.36
2023-05-20T14:38:55.958Z,23.41
2023-05-20T14:39:55.909Z,23.34
2023-05-20T14:40:55.830Z,23.48
2023-05-20T14:41:55.802Z,23.46
2023-05-20T14:42:55.728Z,23.48
2023-05-20T14:43:55.646Z,23.61
2023-05-20T14:44:55.596Z,23.50
2023-05-20T14:45:55.515Z,23.61
2023-05-20T14:46:55.505Z,23.50
2023-05-20T14:47:55.450Z,23.58
2023-05-20T14:48:55.342Z,23.48
2023-05-20T14:49:55.294Z,23.56
2023-05-20T14:50:55.216Z,23.58
2023-05-20T14:51:55.155Z,23.51
2023-05-20T14:52:55.091Z,23.56
2023-05-20T14:53:55.053Z,23.56
2023-05-20T14:54:54.973Z,23.44
2023-05-20T14:55:54.933Z,23.54
2023-05-20T14:56:54.856Z,23.46
2023-05-20T14:57:54.800Z,23.43
2023-05-20T14:58:54.738Z,23.50
2023-05-20T14:59:54.672Z,23.47
2023-05-20T15:00:54.625Z,23.51
2023-05-20T15:01:54.575Z,23.47
2023-05-20T15:02:54.625Z,23.54
2023-05-20T15:03:54.518Z,23.54
2023-05-20T15:04:54.362Z,23.48
2023-05-20T15:05:54.341Z,23.51
2023-05-20T15:06:54.229Z,23.50
2023-05-20T15:07:54.195Z,23.47
2023-05-20T15:08:54.120Z,23.36
2023-05-20T15:09:54.062Z,23.37
2023-05-20T15:10:54.041Z,23.47
2023-05-20T15:11:53.953Z,23.44
2023-05-20T15:12:53.876Z,23.34
2023-05-20T15:13:53.834Z,23.27
2023-05-20T15:14:53.771Z,23.34
2023-05-20T15:15:53.701Z,23.32
2023-05-20T15:16:53.701Z,23.34
2023-05-20T15:17:53.652Z,23.34
2023-05-20T15:18:53.538Z,23.37
2023-05-20T15:19:53.451Z,23.44
2023-05-20T15:20:53.402Z,23.43
2023-05-20T15:21:53.337Z,23.44
2023-05-20T15:22:53.339Z,23.47
2023-05-20T15:23:53.224Z,23.47
2023-05-20T15:24:53.139Z,23.47
2023-05-20T15:25:53.084Z,23.51
2023-05-20T15:26:53.049Z,23.54
2023-05-20T15:27:52.986Z,23.51
2023-05-20T15:28:52.913Z,23.48
2023-05-20T15:29:52.889Z,23.51
2023-05-20T15:30:52.776Z,23.51
2023-05-20T15:31:52.717Z,23.44
2023-05-20T15:32:52.723Z,23.56
2023-05-20T15:33:52.721Z,23.58
2023-05-20T15:34:52.553Z,23.61
2023-05-20T15:35:52.509Z,23.58
2023-05-20T15:36:52.412Z,23.59
2023-05-20T15:37:52.378Z,23.55
2023-05-20T15:38:52.347Z,23.56
2023-05-20T15:39:52.246Z,23.56
2023-05-20T15:40:52.182Z,23.61
2023-05-20T15:41:52.117Z,23.68
2023-05-20T15:42:52.059Z,23.69
2023-05-20T15:43:51.990Z,23.69
2023-05-20T15:44:51.933Z,23.62
2023-05-20T15:45:51.903Z,23.65
2023-05-20T15:46:51.803Z,23.63
2023-05-20T15:47:51.754Z,23.63
2023-05-20T15:48:51.686Z,23.62
2023-05-20T15:49:51.651Z,23.58
2023-05-20T15:50:51.591Z,23.46
2023-05-20T15:52:02.468Z,23.50
2023-05-20T15:52:51.521Z,23.46
2023-05-20T15:53:51.380Z,23.48
2023-05-20T15:54:51.365Z,23.44
2023-05-20T15:55:51.265Z,23.54
2023-05-20T15:56:51.214Z,23.51
2023-05-20T15:57:51.163Z,23.55
2023-05-20T15:58:51.091Z,23.51
2023-05-20T15:59:51.028Z,23.58
2023-05-20T16:00:50.955Z,23.56
2023-05-20T16:01:50.997Z,23.54
2023-05-20T16:02:50.979Z,23.56
2023-05-20T16:03:50.901Z,23.59
2023-05-20T16:04:50.735Z,23.55
2023-05-20T16:05:50.677Z,23.61
2023-05-20T16:06:50.607Z,23.59
2023-05-20T16:07:50.545Z,23.56
2023-05-20T16:08:50.489Z,23.56
2023-05-20T16:09:50.459Z,23.56
2023-05-20T16:10:50.360Z,23.51
2023-05-20T16:11:50.299Z,23.54
2023-05-20T16:12:50.307Z,23.47
2023-05-20T16:13:50.207Z,23.50
2023-05-20T16:14:50.116Z,23.56
2023-05-20T16:15:50.108Z,23.46
2023-05-20T16:16:50.079Z,23.50
2023-05-20T16:17:50.047Z,23.48
2023-05-20T16:18:49.890Z,23.47
2023-05-20T16:19:50.014Z,23.36
2023-05-20T16:20:49.775Z,23.32
2023-05-20T16:21:49.680Z,23.36
2023-05-20T16:22:49.626Z,23.36
2023-05-20T16:23:49.598Z,23.36
2023-05-20T16:24:49.512Z,23.17
2023-05-20T16:25:49.463Z,23.28
2023-05-20T16:26:49.400Z,23.23
2023-05-20T16:27:49.315Z,23.17
2023-05-20T16:28:49.266Z,23.24
2023-05-20T16:29:49.190Z,23.24
2023-05-20T16:30:49.133Z,23.28
2023-05-20T16:31:49.088Z,23.37
2023-05-20T16:32:49.127Z,23.32
2023-05-20T16:33:48.959Z,23.28
2023-05-20T16:34:48.905Z,23.32
2023-05-20T16:35:48.891Z,23.36
2023-05-20T16:36:48.771Z,23.40
2023-05-20T16:37:48.747Z,23.39
2023-05-20T16:38:48.644Z,23.31
2023-05-20T16:39:48.619Z,23.39
2023-05-20T16:40:48.529Z,23.37
2023-05-20T16:41:48.548Z,23.39
2023-05-20T16:42:48.411Z,23.28
2023-05-20T16:43:48.362Z,23.36
2023-05-20T16:44:48.276Z,23.32
2023-05-20T16:45:48.268Z,23.37
2023-05-20T16:46:48.219Z,23.31
2023-05-20T16:47:48.122Z,23.31
2023-05-20T16:48:48.042Z,23.24
2023-05-20T16:49:48.028Z,23.24
2023-05-20T16:50:47.930Z,23.28
2023-05-20T16:51:47.877Z,23.34
2023-05-20T16:52:47.801Z,23.28
2023-05-20T16:53:47.742Z,23.32
2023-05-20T16:54:47.714Z,23.23
2023-05-20T16:55:47.620Z,23.25
2023-05-20T16:56:47.548Z,23.21
2023-05-20T16:57:47.515Z,23.24
2023-05-20T16:58:47.453Z,23.32
2023-05-20T16:59:47.426Z,23.36
2023-05-20T17:00:47.352Z,23.24
2023-05-20T17:01:47.265Z,23.28
2023-05-20T17:02:47.205Z,23.27
2023-05-20T17:03:47.173Z,23.24
2023-05-20T17:04:47.152Z,23.24
2023-05-20T17:05:47.007Z,23.25
2023-05-20T17:06:46.945Z,23.25
2023-05-20T17:07:46.877Z,23.36
2023-05-20T17:08:46.816Z,23.32
2023-05-20T17:09:46.761Z,23.32
2023-05-20T17:10:46.734Z,23.20
2023-05-20T17:11:46.675Z,23.23
2023-05-20T17:12:46.566Z,23.28
2023-05-20T17:13:46.509Z,23.25
2023-05-20T17:14:46.449Z,23.23
2023-05-20T17:15:46.390Z,23.24
2023-05-20T17:16:46.380Z,23.27
2023-05-20T17:17:46.321Z,23.23
2023-05-20T17:18:46.229Z,23.23
2023-05-20T17:19:46.224Z,23.21
2023-05-20T17:20:46.088Z,23.25
2023-05-20T17:21:46.031Z,23.21
2023-05-20T17:22:45.975Z,23.24
2023-05-20T17:23:45.927Z,23.20
2023-05-20T17:24:45.875Z,23.15
2023-05-20T17:25:45.787Z,23.15
2023-05-20T17:26:45.711Z,23.23
2023-05-20T17:27:45.673Z,23.12
2023-05-20T17:28:45.614Z,23.10
2023-05-20T17:29:45.535Z,23.09
2023-05-20T17:30:45.472Z,22.99
2023-05-20T17:31:45.491Z,23.00
2023-05-20T17:32:45.480Z,23.02
2023-05-20T17:33:45.386Z,22.98
2023-05-20T17:34:45.264Z,22.91
2023-05-20T17:35:45.199Z,22.98
2023-05-20T17:36:45.123Z,22.91
2023-05-20T17:37:45.044Z,22.90
2023-05-20T17:38:44.990Z,22.91
2023-05-20T17:39:44.933Z,22.96
2023-05-20T17:40:44.867Z,22.90
2023-05-20T17:41:44.804Z,22.91
2023-05-20T17:42:44.768Z,22.88
2023-05-20T17:43:44.687Z,22.90
2023-05-20T17:44:44.610Z,22.81
2023-05-20T17:45:44.565Z,22.87
2023-05-20T17:46:44.524Z,22.84
2023-05-20T17:47:44.463Z,22.88
2023-05-20T17:48:44.425Z,22.94
2023-05-20T17:49:44.350Z,22.85
2023-05-20T17:50:44.253Z,22.88
2023-05-20T17:51:44.202Z,22.87
2023-05-20T17:52:44.120Z,22.84
2023-05-20T17:53:44.088Z,22.87
2023-05-20T17:54:44.033Z,22.78
2023-05-20T17:55:43.946Z,22.83
2023-05-20T17:56:43.900Z,22.84
2023-05-20T17:57:43.856Z,22.83
2023-05-20T17:58:43.830Z,22.70
2023-05-20T17:59:43.712Z,22.75
2023-05-20T18:00:43.656Z,22.69
2023-05-20T18:01:43.645Z,22.75
2023-05-20T18:02:43.563Z,22.66
2023-05-20T18:03:43.583Z,22.62
2023-05-20T18:04:43.407Z,22.62
2023-05-20T18:05:43.391Z,22.68
2023-05-20T18:06:43.288Z,22.62
2023-05-20T18:07:43.248Z,22.53
2023-05-20T18:08:43.221Z,22.55
2023-05-20T18:09:43.193Z,22.50
2023-05-20T18:10:43.029Z,22.57
2023-05-20T18:11:42.974Z,22.50
2023-05-20T18:12:42.920Z,22.63
2023-05-20T18:13:42.853Z,22.63
2023-05-20T18:14:42.798Z,22.62
2023-05-20T18:15:42.809Z,22.63
2023-05-20T18:16:42.754Z,22.63
2023-05-20T18:17:42.623Z,22.75
2023-05-20T18:18:42.568Z,22.83
2023-05-20T18:19:42.489Z,22.85
2023-05-20T18:20:42.430Z,22.78
2023-05-20T18:21:42.367Z,22.76
2023-05-20T18:22:42.307Z,22.72
2023-05-20T18:23:42.309Z,22.76
2023-05-20T18:24:42.192Z,22.66
2023-05-20T18:25:42.950Z,22.72
2023-05-20T18:26:42.061Z,22.65
2023-05-20T18:27:41.998Z,22.78
2023-05-20T18:28:41.950Z,22.76
2023-05-20T18:29:41.868Z,22.63
2023-05-20T18:30:28.894Z,22.72
2023-05-20T18:31:28.915Z,22.68
2023-05-20T18:32:28.783Z,22.66
2023-05-20T18:33:28.683Z,22.81
2023-05-20T18:34:28.617Z,23.81
2023-05-20T18:35:28.557Z,24.18
2023-05-20T18:36:28.494Z,23.87
2023-05-20T18:37:28.459Z,23.81
2023-05-20T18:38:43.996Z,24.08
2023-05-20T18:39:31.716Z,24.01
2023-05-20T18:40:31.653Z,23.91
2023-05-20T18:42:29.438Z,23.65
2023-05-20T18:43:29.367Z,23.63
2023-05-20T18:45:27.845Z,23.71
2023-05-20T18:46:27.735Z,23.63
2023-05-20T18:47:27.662Z,23.68
2023-05-20T18:48:27.631Z,23.76
2023-05-20T18:49:27.533Z,23.68
2023-05-20T18:50:27.491Z,23.69
2023-05-20T18:51:27.423Z,23.63
2023-05-20T18:52:27.349Z,23.77
2023-05-20T18:53:27.287Z,23.81
2023-05-20T18:54:27.269Z,23.78
2023-05-20T18:55:27.203Z,23.77
2023-05-20T18:56:27.107Z,23.81
2023-05-20T18:57:27.053Z,23.77
2023-05-20T18:58:27.041Z,23.87
2023-05-20T18:59:26.957Z,23.86
2023-05-20T19:00:26.868Z,23.76
2023-05-20T19:01:26.863Z,23.65
2023-05-20T19:02:26.760Z,23.71
2023-05-20T19:03:26.719Z,23.54
2023-05-20T19:04:26.621Z,23.46
2023-05-20T19:05:26.624Z,23.44
2023-05-20T19:06:26.496Z,23.47
2023-05-20T19:07:26.437Z,23.36
2023-05-20T19:08:26.378Z,23.32
2023-05-20T19:09:26.313Z,23.36
2023-05-20T19:10:26.940Z,23.23
2023-05-20T19:11:26.201Z,23.20
2023-05-20T19:12:26.151Z,23.23
2023-05-20T19:13:26.175Z,23.23
2023-05-20T19:14:26.035Z,23.21
2023-05-20T19:15:25.954Z,23.23
2023-05-20T19:16:25.902Z,23.24
2023-05-20T19:17:25.844Z,23.21
2023-05-20T19:18:25.758Z,23.24
2023-05-20T19:19:25.816Z,23.24
2023-05-20T19:20:25.648Z,23.20
2023-05-20T19:21:25.576Z,23.12
2023-05-20T19:22:25.519Z,23.09
2023-05-20T19:23:25.442Z,23.15
2023-05-20T19:24:25.413Z,23.17
2023-05-20T19:25:25.322Z,23.15
2023-05-20T19:26:25.264Z,23.06
2023-05-20T19:27:25.214Z,23.08
2023-05-20T19:28:25.179Z,22.94
2023-05-20T19:29:25.122Z,23.03
2023-05-20T19:30:25.052Z,23.00
2023-05-20T19:31:24.980Z,23.06
2023-05-20T19:32:24.937Z,22.98
2023-05-20T19:33:24.830Z,22.99
2023-05-20T19:34:24.788Z,23.03
2023-05-20T19:35:24.720Z,22.99
2023-05-20T19:36:24.675Z,22.94
2023-05-20T19:37:24.588Z,22.96
2023-05-20T19:38:24.540Z,23.00
2023-05-20T19:39:24.511Z,22.93
2023-05-20T19:40:24.414Z,22.98
2023-05-20T19:41:24.387Z,22.90
2023-05-20T19:42:24.308Z,22.88
2023-05-20T19:43:24.215Z,22.94
2023-05-20T19:44:24.164Z,22.85
2023-05-20T19:45:24.090Z,22.84
2023-05-20T19:46:24.125Z,22.80
2023-05-20T19:47:24.001Z,22.83
2023-05-20T19:48:23.919Z,22.85
2023-05-20T19:49:23.860Z,22.81
2023-05-20T19:50:23.790Z,22.81
2023-05-20T19:51:23.759Z,22.80
2023-05-20T19:52:23.677Z,22.72
2023-05-20T19:53:23.602Z,22.83
2023-05-20T19:54:23.549Z,22.81
2023-05-20T19:55:23.478Z,22.70
2023-05-20T19:56:23.442Z,22.83
2023-05-20T19:57:23.374Z,22.84
2023-05-20T19:58:23.314Z,22.76
2023-05-20T19:59:23.225Z,22.80
2023-05-20T20:00:23.186Z,22.84
2023-05-20T20:01:23.110Z,22.84
2023-05-20T20:02:23.059Z,22.85
2023-05-20T20:03:22.988Z,22.90
2023-05-20T20:04:22.965Z,22.85
2023-05-20T20:05:23.961Z,22.76
2023-05-20T20:06:22.815Z,22.84
2023-05-20T20:07:22.735Z,22.84
2023-05-20T20:08:22.670Z,22.83
2023-05-20T20:09:22.632Z,22.70
2023-05-20T20:10:22.568Z,22.69
2023-05-20T20:11:22.509Z,22.65
2023-05-20T20:12:22.436Z,22.66
2023-05-20T20:13:22.378Z,22.62
2023-05-20T20:14:22.300Z,22.50
2023-05-20T20:15:22.242Z,22.47
2023-05-20T20:16:22.212Z,22.53
2023-05-20T20:17:23.164Z,22.47
2023-05-20T20:18:22.065Z,22.45
2023-05-20T20:19:22.069Z,22.48
2023-05-20T20:20:21.936Z,22.55
2023-05-20T20:21:21.891Z,22.33
2023-05-20T20:22:21.865Z,22.36
2023-05-20T20:23:21.766Z,22.25
2023-05-20T20:24:21.692Z,22.17
2023-05-20T20:25:21.628Z,22.25
2023-05-20T20:26:21.573Z,22.18
2023-05-20T20:27:21.520Z,22.18
2023-05-20T20:28:21.461Z,22.15
2023-05-20T20:29:21.362Z,22.23
2023-05-20T20:30:21.328Z,22.10
2023-05-20T20:31:21.283Z,22.00
2023-05-20T20:32:21.227Z,22.08
2023-05-20T20:33:21.211Z,22.18
2023-05-20T20:34:21.070Z,22.00
2023-05-20T20:35:21.039Z,22.06
2023-05-20T20:36:20.938Z,22.18
2023-05-20T20:37:20.877Z,22.17
2023-05-20T20:38:20.873Z,22.13
2023-05-20T20:39:20.761Z,22.18
2023-05-20T20:40:20.697Z,22.07
2023-05-20T20:41:20.631Z,22.14
2023-05-20T20:42:20.604Z,22.11
2023-05-20T20:43:21.407Z,22.10
2023-05-20T20:44:20.468Z,22.00
2023-05-20T20:45:20.376Z,22.08
2023-05-20T20:46:20.376Z,22.06
2023-05-20T20:47:20.400Z,21.99
2023-05-20T20:48:20.272Z,21.99
2023-05-20T20:49:20.140Z,21.96
2023-05-20T20:50:20.096Z,21.98
2023-05-20T20:51:20.028Z,21.98
2023-05-20T20:52:19.949Z,21.92
2023-05-20T20:53:19.884Z,21.85
2023-05-20T20:54:19.819Z,21.88
2023-05-20T20:55:19.771Z,21.83
2023-05-20T20:56:19.700Z,21.88
2023-05-20T20:57:19.639Z,21.95
2023-05-20T20:58:19.579Z,21.91
2023-05-20T20:59:19.533Z,21.99
2023-05-20T21:00:19.440Z,21.96
2023-05-20T21:01:19.404Z,21.95
2023-05-20T21:02:19.337Z,21.92
2023-05-20T21:03:19.281Z,21.91
2023-05-20T21:04:19.267Z,21.92
2023-05-20T21:05:19.168Z,21.83
2023-05-20T21:06:19.076Z,21.88
2023-05-20T21:07:19.005Z,21.88
2023-05-20T21:08:18.959Z,21.93
2023-05-20T21:09:18.889Z,21.88
2023-05-20T21:10:18.850Z,21.96
2023-05-20T21:11:18.763Z,21.92
2023-05-20T21:12:18.708Z,21.85
2023-05-20T21:13:18.671Z,21.91
2023-05-20T21:14:18.624Z,21.83
2023-05-20T21:15:18.542Z,21.85
2023-05-20T21:16:18.476Z,21.73
2023-05-20T21:17:18.418Z,21.79
2023-05-20T21:18:18.338Z,21.79
2023-05-20T21:19:18.305Z,21.85
2023-05-20T21:20:20.877Z,21.75
2023-05-20T21:21:18.164Z,21.75
2023-05-20T21:22:18.072Z,21.76
2023-05-20T21:23:18.043Z,21.77
2023-05-20T21:24:17.953Z,21.92
2023-05-20T21:25:17.885Z,21.80
2023-05-20T21:26:17.819Z,21.98
2023-05-20T21:27:17.761Z,21.93
2023-05-20T21:28:17.729Z,21.95
2023-05-20T21:29:17.656Z,21.92
2023-05-20T21:30:17.579Z,22.07
2023-05-20T21:31:17.544Z,22.02
2023-05-20T21:32:17.459Z,22.10
2023-05-20T21:33:17.390Z,21.99
2023-05-20T21:34:17.322Z,21.89
2023-05-20T21:35:17.260Z,21.91
2023-05-20T21:36:17.194Z,21.95
2023-05-20T21:37:17.140Z,21.82
2023-05-20T21:38:17.073Z,21.91
2023-05-20T21:39:17.008Z,21.93
2023-05-20T21:40:16.968Z,22.02
2023-05-20T21:41:16.905Z,21.88
2023-05-20T21:42:16.830Z,21.92
2023-05-20T21:43:16.763Z,21.83
2023-05-20T21:44:16.697Z,21.91
2023-05-20T21:45:16.638Z,21.91
2023-05-20T21:46:16.636Z,21.88
2023-05-20T21:47:16.539Z,21.99
2023-05-20T21:48:16.448Z,21.95
2023-05-20T21:49:16.404Z,21.91
2023-05-20T21:50:16.364Z,21.92
2023-05-20T21:51:16.276Z,21.91
2023-05-20T21:52:16.216Z,21.88
2023-05-20T21:53:16.154Z,21.93
2023-05-20T21:54:16.091Z,21.95
2023-05-20T21:55:16.021Z,21.91
2023-05-20T21:56:15.967Z,21.96
2023-05-20T21:57:15.925Z,22.00
2023-05-20T21:58:15.821Z,21.95
2023-05-20T21:59:15.771Z,21.98
2023-05-20T22:00:15.725Z,21.92
2023-05-20T22:01:15.682Z,21.95
2023-05-20T22:02:15.593Z,21.93
2023-05-20T22:03:15.598Z,21.92
2023-05-20T22:04:15.502Z,21.92
2023-05-20T22:05:15.407Z,21.93
2023-05-20T22:06:15.334Z,21.99
2023-05-20T22:07:15.265Z,21.98